createdAt,value
2023-04-03T00:00:35.971Z,33.25
2023-04-03T00:05:40.385Z,32.65
2023-04-03T00:10:43.508Z,32.35
2023-04-03T00:15:46.489Z,32.03
2023-04-03T00:20:51.324Z,32.00
2023-04-03T00:25:54.736Z,31.97
2023-04-03T00:30:57.649Z,32.00
2023-04-03T00:36:06.764Z,31.98
2023-04-03T00:41:10.027Z,32.70
2023-04-03T00:46:12.987Z,32.95
2023-04-03T00:51:22.055Z,32.72
2023-04-03T00:56:28.938Z,32.42
2023-04-03T01:01:32.742Z,32.47
2023-04-03T01:06:39.181Z,32.65
2023-04-03T01:11:44.244Z,33.03
2023-04-03T01:16:54.981Z,32.47
2023-04-03T01:22:21.783Z,32.42
2023-04-03T01:27:24.713Z,32.90
2023-04-03T01:32:29.154Z,33.00
2023-04-03T01:37:32.132Z,32.42
2023-04-03T01:42:35.367Z,32.10
2023-04-03T01:47:39.784Z,32.17
2023-04-03T01:52:42.830Z,32.05
2023-04-03T01:57:45.765Z,32.42
2023-04-03T02:02:50.098Z,32.25
2023-04-03T02:07:53.148Z,32.53
2023-04-03T02:12:56.584Z,31.92
2023-04-03T02:18:00.940Z,31.90
2023-04-03T02:23:04.259Z,31.73
2023-04-03T02:28:07.361Z,31.98
2023-04-03T02:33:11.979Z,33.03
2023-04-03T02:38:15.758Z,32.40
2023-04-03T02:43:18.866Z,32.42
2023-04-03T02:48:24.574Z,32.80
2023-04-03T02:53:27.513Z,32.80
2023-04-03T02:58:30.734Z,32.28
2023-04-03T03:03:37.168Z,32.53
2023-04-03T03:08:40.583Z,32.38
2023-04-03T03:13:43.570Z,33.03
2023-04-03T03:18:50.981Z,32.80
2023-04-03T03:23:53.870Z,32.40
2023-04-03T03:28:56.816Z,33.22
2023-04-03T03:34:01.184Z,32.38
2023-04-03T03:39:04.368Z,34.97
2023-04-03T03:44:07.432Z,34.45
2023-04-03T03:49:12.499Z,37.75
2023-04-03T03:54:16.762Z,33.60
2023-04-03T03:59:20.305Z,33.53
2023-04-03T04:04:25.644Z,33.20
2023-04-03T04:09:29.069Z,33.28
2023-04-03T04:14:32.373Z,33.22
2023-04-03T04:19:38.096Z,33.27
2023-04-03T04:24:41.467Z,34.22
2023-04-03T04:29:45.715Z,32.88
2023-04-03T04:34:50.717Z,32.40
2023-04-03T04:39:53.915Z,32.63
2023-04-03T04:44:57.006Z,32.83
2023-04-03T04:50:01.917Z,33.13
2023-04-03T04:55:06.337Z,33.63
2023-04-03T05:00:10.854Z,33.70
2023-04-03T05:05:15.687Z,33.47
2023-04-03T05:10:18.899Z,33.75
2023-04-03T05:15:23.235Z,33.15
2023-04-03T05:20:28.277Z,32.72
2023-04-03T05:25:31.501Z,32.65
2023-04-03T05:30:35.601Z,32.90
2023-04-03T05:35:42.576Z,32.83
2023-04-03T05:40:48.874Z,32.13
2023-04-03T05:45:53.463Z,32.83
2023-04-03T05:51:00.457Z,32.20
2023-04-03T05:56:03.618Z,31.85
2023-04-03T06:01:10.112Z,32.35
2023-04-03T06:06:16.510Z,32.22
2023-04-03T06:11:19.816Z,32.38
2023-04-03T06:16:23.209Z,32.67
2023-04-03T06:21:27.680Z,31.65
2023-04-03T06:26:30.751Z,32.15
2023-04-03T06:31:33.916Z,31.55
2023-04-03T06:36:38.714Z,31.55
2023-04-03T06:41:41.646Z,31.13
2023-04-03T06:46:46.375Z,31.50
2023-04-03T06:51:50.873Z,31.75
2023-04-03T06:56:53.993Z,31.73
2023-04-03T07:01:57.733Z,31.27
2023-04-03T07:07:02.243Z,31.27
2023-04-03T07:12:05.717Z,31.88
2023-04-03T07:17:08.840Z,31.15
2023-04-03T07:22:14.013Z,31.50
2023-04-03T07:27:17.060Z,31.33
2023-04-03T07:32:20.242Z,31.00
2023-04-03T07:37:24.575Z,31.70
2023-04-03T07:42:28.712Z,31.27
2023-04-03T07:47:34.708Z,31.40
2023-04-03T07:52:39.608Z,31.58
2023-04-03T07:57:50.818Z,32.17
2023-04-03T08:02:54.925Z,31.17
2023-04-03T08:07:59.442Z,31.88
2023-04-03T08:13:05.740Z,31.73
2023-04-03T08:18:08.968Z,31.15
2023-04-03T08:23:20.297Z,31.60
2023-04-03T08:28:26.155Z,31.40
2023-04-03T08:33:29.660Z,31.95
2023-04-03T08:38:40.742Z,31.92
2023-04-03T08:44:00.631Z,32.08
2023-04-03T08:49:04.544Z,31.65
2023-04-03T08:54:21.038Z,31.63
2023-04-03T08:59:58.890Z,32.25
2023-04-03T09:05:15.036Z,32.47
2023-04-03T09:10:30.078Z,33.33
2023-04-03T09:15:38.952Z,32.53
2023-04-03T09:21:33.670Z,32.25
2023-04-03T09:26:51.982Z,32.25
2023-04-03T09:32:08.282Z,32.78
2023-04-03T09:37:11.263Z,32.53
2023-04-03T09:42:16.282Z,32.60
2023-04-03T09:47:25.049Z,32.08
2023-04-03T09:52:29.940Z,32.30
2023-04-03T09:57:35.113Z,32.60
2023-04-03T10:02:41.506Z,32.45
2023-04-03T10:07:51.676Z,33.03
2023-04-03T10:13:10.576Z,32.90
2023-04-03T10:18:33.604Z,33.53
2023-04-03T10:23:44.881Z,32.55
2023-04-03T10:28:53.424Z,32.75
2023-04-03T10:34:07.047Z,33.22
2023-04-03T10:39:26.343Z,33.00
2023-04-03T10:44:38.848Z,32.67
2023-04-03T10:49:59.377Z,32.97
2023-04-03T10:55:16.131Z,32.97
2023-04-03T11:00:35.877Z,33.38
2023-04-03T11:05:45.922Z,32.67
2023-04-03T11:10:51.878Z,33.65
2023-04-03T11:15:56.467Z,33.22
2023-04-03T11:21:06.006Z,33.10
2023-04-03T11:26:13.122Z,33.10
2023-04-03T11:31:32.029Z,33.50
2023-04-03T11:36:42.730Z,32.92
2023-04-03T11:42:00.191Z,33.03
2023-04-03T11:47:09.111Z,33.50
2023-04-03T11:52:14.152Z,33.17
2023-04-03T11:57:56.779Z,33.47
2023-04-03T12:03:00.391Z,33.60
2023-04-03T12:08:27.660Z,33.08
2023-04-03T12:13:33.602Z,32.85
2023-04-03T12:18:59.459Z,33.25
2023-04-03T12:24:06.918Z,33.30
2023-04-03T12:29:24.863Z,32.53
2023-04-03T12:34:44.490Z,32.47
2023-04-03T12:39:57.585Z,32.83
2023-04-03T12:45:04.325Z,32.75
2023-04-03T12:50:20.618Z,32.70
2023-04-03T12:55:25.132Z,33.08
2023-04-03T13:00:35.137Z,33.13
2023-04-03T13:05:38.295Z,32.85
2023-04-03T13:10:55.499Z,33.33
2023-04-03T13:15:58.610Z,32.88
2023-04-03T13:21:06.932Z,32.70
2023-04-03T13:26:12.146Z,33.05
2023-04-03T13:31:24.431Z,32.70
2023-04-03T13:36:31.702Z,32.72
2023-04-03T13:41:37.570Z,32.90
2023-04-03T13:46:41.078Z,32.85
2023-04-03T13:51:45.160Z,32.70
2023-04-03T13:56:57.748Z,32.95
2023-04-03T14:02:17.437Z,33.10
2023-04-03T14:07:21.119Z,32.88
2023-04-03T14:12:31.873Z,33.08
2023-04-03T14:17:35.253Z,33.28
2023-04-03T14:22:38.148Z,32.53
2023-04-03T14:27:44.613Z,32.78
2023-04-03T14:32:48.309Z,32.63
2023-04-03T14:37:52.711Z,33.47
2023-04-03T14:42:58.364Z,32.72
2023-04-03T14:48:01.735Z,33.03
2023-04-03T14:53:05.759Z,33.42
2023-04-03T14:58:14.887Z,32.78
2023-04-03T15:03:20.588Z,32.70
2023-04-03T15:08:26.716Z,32.53
2023-04-03T15:13:31.647Z,32.95
2023-04-03T15:18:39.089Z,32.88
2023-04-03T15:23:42.961Z,32.60
2023-04-03T15:28:47.279Z,33.25
2023-04-03T15:33:50.175Z,32.92
2023-04-03T15:38:53.064Z,33.72
2023-04-03T15:43:57.374Z,33.25
2023-04-03T15:49:00.353Z,33.58
2023-04-03T15:54:03.409Z,33.58
2023-04-03T15:59:19.059Z,33.55
2023-04-03T16:04:22.648Z,32.75
2023-04-03T16:09:25.690Z,33.75
2023-04-03T16:14:31.271Z,33.08
2023-04-03T16:19:34.504Z,32.60
2023-04-03T16:24:39.116Z,32.78
2023-04-03T16:29:43.698Z,33.13
2023-04-03T16:34:46.756Z,32.47
2023-04-03T16:39:49.746Z,32.80
2023-04-03T16:44:54.182Z,32.53
2023-04-03T16:49:57.252Z,32.25
2023-04-03T16:55:00.526Z,32.25
2023-04-03T17:00:06.458Z,33.08
2023-04-03T17:05:10.761Z,32.72
2023-04-03T17:10:15.106Z,32.70
2023-04-03T17:15:20.825Z,32.90
2023-04-03T17:20:23.840Z,32.88
2023-04-03T17:25:26.861Z,32.70
2023-04-03T17:30:31.143Z,32.70
2023-04-03T17:35:34.124Z,32.78
2023-04-03T17:40:37.053Z,33.00
2023-04-03T17:45:41.888Z,32.65
2023-04-03T17:50:45.084Z,33.22
2023-04-03T17:55:48.207Z,32.83
2023-04-03T18:00:54.407Z,32.55
2023-04-03T18:05:57.386Z,32.55
2023-04-03T18:11:01.353Z,32.70
2023-04-03T18:16:07.413Z,32.30
2023-04-03T18:21:13.144Z,33.40
2023-04-03T18:26:19.771Z,33.65
2023-04-03T18:31:27.417Z,32.60
2023-04-03T18:36:30.587Z,32.85
2023-04-03T18:41:36.383Z,34.42
2023-04-03T18:46:41.199Z,32.92
2023-04-03T18:51:44.165Z,33.53
2023-04-03T18:57:26.580Z,33.17
2023-04-03T19:02:31.121Z,33.33
2023-04-03T19:07:34.802Z,33.28
2023-04-03T19:12:37.746Z,33.58
2023-04-03T19:17:42.306Z,33.53
2023-04-03T19:22:46.413Z,33.60
2023-04-03T19:27:51.833Z,37.28
2023-04-03T19:32:56.920Z,33.70
2023-04-03T19:38:00.131Z,33.83
2023-04-03T19:43:03.064Z,34.08
2023-04-03T19:48:08.549Z,33.67
2023-04-03T19:53:14.522Z,33.97
2023-04-03T19:58:17.704Z,34.15
2023-04-03T20:03:22.317Z,34.28
2023-04-03T20:08:26.228Z,34.50
2023-04-03T20:13:29.143Z,34.33
2023-04-03T20:18:34.963Z,34.65
2023-04-03T20:23:38.911Z,33.55
2023-04-03T20:28:41.839Z,33.85
2023-04-03T20:33:46.234Z,33.80
2023-04-03T20:38:49.485Z,33.53
2023-04-03T20:43:52.479Z,33.58
2023-04-03T20:48:57.969Z,33.80
2023-04-03T20:54:00.935Z,33.30
2023-04-03T20:59:04.781Z,34.13
2023-04-03T21:04:15.770Z,33.38
2023-04-03T21:09:56.746Z,33.80
2023-04-03T21:15:37.007Z,33.00
2023-04-03T21:20:43.109Z,33.05
2023-04-03T21:25:47.296Z,32.88
2023-04-03T21:30:50.542Z,33.72
2023-04-03T21:35:58.558Z,33.17
2023-04-03T21:41:01.542Z,33.15
2023-04-03T21:46:05.589Z,32.47
2023-04-03T21:51:10.999Z,33.03
2023-04-03T21:56:13.965Z,32.55
2023-04-03T22:01:17.749Z,32.75
2023-04-03T22:06:21.999Z,32.63
2023-04-03T22:11:27.639Z,32.85
2023-04-03T22:16:30.636Z,32.35
2023-04-03T22:21:34.957Z,32.78
2023-04-03T22:26:39.508Z,32.75
2023-04-03T22:31:42.940Z,32.03
2023-04-03T22:36:47.234Z,32.00
2023-04-03T22:41:50.403Z,32.13
2023-04-03T22:46:53.547Z,31.73
2023-04-03T22:51:57.792Z,31.60
2023-04-03T22:57:00.690Z,31.73
2023-04-03T23:02:04.320Z,31.70
2023-04-03T23:07:08.586Z,31.40
2023-04-03T23:12:11.475Z,31.48
2023-04-03T23:17:14.377Z,32.08
2023-04-03T23:22:18.631Z,32.17
2023-04-03T23:27:21.558Z,31.92
2023-04-03T23:32:24.484Z,31.42
2023-04-03T23:37:28.733Z,31.80
2023-04-03T23:42:32.017Z,31.58
2023-04-03T23:47:34.982Z,31.48
2023-04-03T23:52:39.265Z,31.55
2023-04-03T23:57:42.945Z,31.40
